sensor_id;sensor_type;location;lat;lon;timestamp;temperature;humidity
5492;DHT22;2768;53.540;10.224;2023-05-06T00:04:52;10.80;99.90
5492;DHT22;2768;53.540;10.224;2023-05-06T00:10:45;10.80;99.90
5492;DHT22;2768;53.540;10.224;2023-05-06T00:16:39;10.90;99.90
5492;DHT22;2768;53.540;10.224;2023-05-06T00:22:33;10.90;99.90
5492;DHT22;2768;53.540;10.224;2023-05-06T00:28:27;10.90;99.90
5492;DHT22;2768;53.540;10.224;2023-05-06T00:34:20;10.90;99.90
5492;DHT22;2768;53.540;10.224;2023-05-06T00:40:15;10.90;99.90
5492;DHT22;2768;53.540;10.224;2023-05-06T00:46:09;11.00;99.90
5492;DHT22;2768;53.540;10.224;2023-05-06T00:52:03;11.00;99.90
5492;DHT22;2768;53.540;10.224;2023-05-06T00:57:58;11.00;99.90
5492;DHT22;2768;53.540;10.224;2023-05-06T01:03:51;11.00;99.90
5492;DHT22;2768;53.540;10.224;2023-05-06T01:09:54;11.00;99.90
5492;DHT22;2768;53.540;10.224;2023-05-06T01:15:53;10.90;99.90
5492;DHT22;2768;53.540;10.224;2023-05-06T01:21:47;10.90;99.90
5492;DHT22;2768;53.540;10.224;2023-05-06T01:27:44;10.80;99.90
5492;DHT22;2768;53.540;10.224;2023-05-06T01:33:43;10.80;99.90
5492;DHT22;2768;53.540;10.224;2023-05-06T01:39:38;10.80;99.90
5492;DHT22;2768;53.540;10.224;2023-05-06T01:45:35;10.80;99.90
5492;DHT22;2768;53.540;10.224;2023-05-06T01:51:31;10.80;99.90
5492;DHT22;2768;53.540;10.224;2023-05-06T01:57:25;10.80;99.90
5492;DHT22;2768;53.540;10.224;2023-05-06T02:03:21;10.80;99.90
5492;DHT22;2768;53.540;10.224;2023-05-06T02:09:14;10.70;99.90
5492;DHT22;2768;53.540;10.224;2023-05-06T02:15:14;10.70;99.90
5492;DHT22;2768;53.540;10.224;2023-05-06T02:21:10;10.70;99.90
5492;DHT22;2768;53.540;10.224;2023-05-06T02:27:03;10.60;99.90
5492;DHT22;2768;53.540;10.224;2023-05-06T02:32:56;10.70;99.90
5492;DHT22;2768;53.540;10.224;2023-05-06T02:38:51;10.80;99.90
5492;DHT22;2768;53.540;10.224;2023-05-06T02:44:45;10.80;99.90
5492;DHT22;2768;53.540;10.224;2023-05-06T02:50:39;10.80;99.90
5492;DHT22;2768;53.540;10.224;2023-05-06T02:56:34;10.80;99.90
5492;DHT22;2768;53.540;10.224;2023-05-06T03:02:27;10.80;99.90
5492;DHT22;2768;53.540;10.224;2023-05-06T03:08:20;10.80;99.90
5492;DHT22;2768;53.540;10.224;2023-05-06T03:14:15;10.80;99.90
5492;DHT22;2768;53.540;10.224;2023-05-06T03:20:09;10.70;99.90
5492;DHT22;2768;53.540;10.224;2023-05-06T03:26:06;10.70;99.90
5492;DHT22;2768;53.540;10.224;2023-05-06T03:32:03;10.60;99.90
5492;DHT22;2768;53.540;10.224;2023-05-06T03:38:02;10.60;99.90
5492;DHT22;2768;53.540;10.224;2023-05-06T03:44:03;10.70;99.90
5492;DHT22;2768;53.540;10.224;2023-05-06T03:49:58;10.60;99.90
5492;DHT22;2768;53.540;10.224;2023-05-06T03:55:53;10.60;99.90
5492;DHT22;2768;53.540;10.224;2023-05-06T04:01:47;10.70;99.90
5492;DHT22;2768;53.540;10.224;2023-05-06T04:07:42;10.70;99.90
5492;DHT22;2768;53.540;10.224;2023-05-06T04:13:35;10.80;99.90
5492;DHT22;2768;53.540;10.224;2023-05-06T04:19:34;10.80;99.90
5492;DHT22;2768;53.540;10.224;2023-05-06T04:25:29;10.70;99.90
5492;DHT22;2768;53.540;10.224;2023-05-06T04:31:23;10.60;99.90
5492;DHT22;2768;53.540;10.224;2023-05-06T04:37:17;10.70;99.90
5492;DHT22;2768;53.540;10.224;2023-05-06T04:43:26;10.60;99.90
5492;DHT22;2768;53.540;10.224;2023-05-06T04:49:27;10.50;99.90
5492;DHT22;2768;53.540;10.224;2023-05-06T04:55:21;10.50;99.90
5492;DHT22;2768;53.540;10.224;2023-05-06T05:01:18;10.60;99.90
5492;DHT22;2768;53.540;10.224;2023-05-06T05:07:12;10.60;99.90
5492;DHT22;2768;53.540;10.224;2023-05-06T05:13:05;10.60;99.90
5492;DHT22;2768;53.540;10.224;2023-05-06T05:19:00;10.50;99.90
5492;DHT22;2768;53.540;10.224;2023-05-06T05:24:57;10.50;99.90
5492;DHT22;2768;53.540;10.224;2023-05-06T05:30:50;10.50;99.90
5492;DHT22;2768;53.540;10.224;2023-05-06T05:36:46;10.50;99.90
5492;DHT22;2768;53.540;10.224;2023-05-06T05:42:40;10.60;99.90
5492;DHT22;2768;53.540;10.224;2023-05-06T05:48:42;10.50;99.90
5492;DHT22;2768;53.540;10.224;2023-05-06T05:54:37;10.50;99.90
5492;DHT22;2768;53.540;10.224;2023-05-06T06:00:31;10.50;99.90
5492;DHT22;2768;53.540;10.224;2023-05-06T06:06:31;10.50;99.90
5492;DHT22;2768;53.540;10.224;2023-05-06T06:12:26;10.40;99.90
5492;DHT22;2768;53.540;10.224;2023-05-06T06:18:19;10.40;99.90
5492;DHT22;2768;53.540;10.224;2023-05-06T06:24:12;10.50;99.90
5492;DHT22;2768;53.540;10.224;2023-05-06T06:30:08;10.50;99.90
5492;DHT22;2768;53.540;10.224;2023-05-06T06:36:01;10.60;99.90
5492;DHT22;2768;53.540;10.224;2023-05-06T06:41:55;10.60;99.90
5492;DHT22;2768;53.540;10.224;2023-05-06T06:47:50;10.60;99.90
5492;DHT22;2768;53.540;10.224;2023-05-06T06:53:43;10.70;99.90
5492;DHT22;2768;53.540;10.224;2023-05-06T06:59:39;10.70;99.90
5492;DHT22;2768;53.540;10.224;2023-05-06T07:05:33;10.60;99.90
5492;DHT22;2768;53.540;10.224;2023-05-06T07:11:26;10.60;99.90
5492;DHT22;2768;53.540;10.224;2023-05-06T07:17:19;10.70;99.90
5492;DHT22;2768;53.540;10.224;2023-05-06T07:23:14;10.70;99.90
5492;DHT22;2768;53.540;10.224;2023-05-06T07:29:08;10.70;99.90
5492;DHT22;2768;53.540;10.224;2023-05-06T07:35:01;10.70;99.90
5492;DHT22;2768;53.540;10.224;2023-05-06T07:40:56;10.70;99.90
5492;DHT22;2768;53.540;10.224;2023-05-06T07:46:49;10.80;99.90
5492;DHT22;2768;53.540;10.224;2023-05-06T07:52:43;10.80;99.90
5492;DHT22;2768;53.540;10.224;2023-05-06T07:58:38;10.80;99.90
5492;DHT22;2768;53.540;10.224;2023-05-06T08:12:16;10.70;99.90
5492;DHT22;2768;53.540;10.224;2023-05-06T08:18:11;10.80;99.90
5492;DHT22;2768;53.540;10.224;2023-05-06T08:24:14;10.90;99.90
5492;DHT22;2768;53.540;10.224;2023-05-06T08:30:08;10.70;99.90
5492;DHT22;2768;53.540;10.224;2023-05-06T08:36:03;10.80;99.90
5492;DHT22;2768;53.540;10.224;2023-05-06T08:41:57;10.80;99.90
5492;DHT22;2768;53.540;10.224;2023-05-06T08:47:51;10.80;99.90
5492;DHT22;2768;53.540;10.224;2023-05-06T08:53:47;10.90;99.90
5492;DHT22;2768;53.540;10.224;2023-05-06T08:59:41;10.90;99.90
5492;DHT22;2768;53.540;10.224;2023-05-06T09:05:35;10.90;99.90
5492;DHT22;2768;53.540;10.224;2023-05-06T09:11:30;10.90;99.90
5492;DHT22;2768;53.540;10.224;2023-05-06T09:17:24;11.00;99.90
5492;DHT22;2768;53.540;10.224;2023-05-06T09:23:20;10.90;99.90
5492;DHT22;2768;53.540;10.224;2023-05-06T09:29:16;11.00;99.90
5492;DHT22;2768;53.540;10.224;2023-05-06T09:35:09;10.90;99.90
5492;DHT22;2768;53.540;10.224;2023-05-06T09:41:04;11.00;99.90
5492;DHT22;2768;53.540;10.224;2023-05-06T09:47:00;11.10;99.90
5492;DHT22;2768;53.540;10.224;2023-05-06T09:52:54;11.20;99.90
5492;DHT22;2768;53.540;10.224;2023-05-06T09:58:49;11.20;99.90
5492;DHT22;2768;53.540;10.224;2023-05-06T10:04:47;11.20;99.90
5492;DHT22;2768;53.540;10.224;2023-05-06T10:10:42;11.20;99.90
5492;DHT22;2768;53.540;10.224;2023-05-06T10:16:35;11.10;99.90
5492;DHT22;2768;53.540;10.224;2023-05-06T10:22:43;11.10;99.90
5492;DHT22;2768;53.540;10.224;2023-05-06T10:28:40;11.20;99.90
5492;DHT22;2768;53.540;10.224;2023-05-06T10:34:39;11.20;99.90
5492;DHT22;2768;53.540;10.224;2023-05-06T10:40:36;11.20;99.90
5492;DHT22;2768;53.540;10.224;2023-05-06T10:46:29;11.20;99.90
5492;DHT22;2768;53.540;10.224;2023-05-06T10:52:23;11.10;99.90
5492;DHT22;2768;53.540;10.224;2023-05-06T10:58:18;11.00;99.90
5492;DHT22;2768;53.540;10.224;2023-05-06T11:04:13;11.00;99.90
5492;DHT22;2768;53.540;10.224;2023-05-06T11:10:09;11.10;99.90
5492;DHT22;2768;53.540;10.224;2023-05-06T11:16:04;11.20;99.90
5492;DHT22;2768;53.540;10.224;2023-05-06T11:21:59;11.20;99.90
5492;DHT22;2768;53.540;10.224;2023-05-06T11:27:55;11.10;99.90
5492;DHT22;2768;53.540;10.224;2023-05-06T11:33:49;11.10;99.90
5492;DHT22;2768;53.540;10.224;2023-05-06T11:39:47;11.20;99.90
5492;DHT22;2768;53.540;10.224;2023-05-06T11:45:42;11.10;99.90
5492;DHT22;2768;53.540;10.224;2023-05-06T11:51:37;11.10;99.90
5492;DHT22;2768;53.540;10.224;2023-05-06T11:57:32;11.10;99.90
5492;DHT22;2768;53.540;10.224;2023-05-06T12:03:27;11.20;99.90
5492;DHT22;2768;53.540;10.224;2023-05-06T12:09:22;11.20;99.90
5492;DHT22;2768;53.540;10.224;2023-05-06T12:15:16;11.00;99.90
5492;DHT22;2768;53.540;10.224;2023-05-06T12:21:09;11.20;99.90
5492;DHT22;2768;53.540;10.224;2023-05-06T12:27:04;11.10;99.90
5492;DHT22;2768;53.540;10.224;2023-05-06T12:32:57;11.10;99.90
5492;DHT22;2768;53.540;10.224;2023-05-06T12:38:51;11.20;99.90
5492;DHT22;2768;53.540;10.224;2023-05-06T12:44:46;11.10;99.90
5492;DHT22;2768;53.540;10.224;2023-05-06T12:50:41;11.30;99.90
5492;DHT22;2768;53.540;10.224;2023-05-06T12:56:34;11.30;99.90
5492;DHT22;2768;53.540;10.224;2023-05-06T13:02:29;11.50;99.90
5492;DHT22;2768;53.540;10.224;2023-05-06T13:08:22;11.50;99.90
5492;DHT22;2768;53.540;10.224;2023-05-06T13:14:15;11.40;99.90
5492;DHT22;2768;53.540;10.224;2023-05-06T13:20:11;11.40;99.90
5492;DHT22;2768;53.540;10.224;2023-05-06T13:26:04;11.40;99.90
5492;DHT22;2768;53.540;10.224;2023-05-06T13:31:58;11.40;99.90
5492;DHT22;2768;53.540;10.224;2023-05-06T13:37:53;11.30;99.90
5492;DHT22;2768;53.540;10.224;2023-05-06T13:43:46;11.30;99.90
5492;DHT22;2768;53.540;10.224;2023-05-06T13:49:39;11.30;99.90
5492;DHT22;2768;53.540;10.224;2023-05-06T13:55:34;11.30;99.90
5492;DHT22;2768;53.540;10.224;2023-05-06T14:01:27;11.30;99.90
5492;DHT22;2768;53.540;10.224;2023-05-06T14:07:20;11.30;99.90
5492;DHT22;2768;53.540;10.224;2023-05-06T14:13:15;11.20;99.90
5492;DHT22;2768;53.540;10.224;2023-05-06T14:19:08;11.40;99.90
5492;DHT22;2768;53.540;10.224;2023-05-06T14:25:01;11.30;99.90
5492;DHT22;2768;53.540;10.224;2023-05-06T14:30:56;11.30;99.90
5492;DHT22;2768;53.540;10.224;2023-05-06T14:36:50;11.30;99.90
5492;DHT22;2768;53.540;10.224;2023-05-06T14:42:43;11.30;99.90
5492;DHT22;2768;53.540;10.224;2023-05-06T14:48:38;11.30;99.90
5492;DHT22;2768;53.540;10.224;2023-05-06T14:54:31;11.30;99.90
5492;DHT22;2768;53.540;10.224;2023-05-06T15:00:24;11.30;99.90
5492;DHT22;2768;53.540;10.224;2023-05-06T15:06:19;11.30;99.90
5492;DHT22;2768;53.540;10.224;2023-05-06T15:12:12;11.30;99.90
5492;DHT22;2768;53.540;10.224;2023-05-06T15:18:05;11.30;99.90
5492;DHT22;2768;53.540;10.224;2023-05-06T15:24:00;11.30;99.90
5492;DHT22;2768;53.540;10.224;2023-05-06T15:29:53;11.30;99.90
5492;DHT22;2768;53.540;10.224;2023-05-06T15:35:46;11.20;99.90
5492;DHT22;2768;53.540;10.224;2023-05-06T15:41:41;11.30;99.90
5492;DHT22;2768;53.540;10.224;2023-05-06T15:47:34;11.20;99.90
5492;DHT22;2768;53.540;10.224;2023-05-06T15:53:27;11.20;99.90
5492;DHT22;2768;53.540;10.224;2023-05-06T15:59:22;11.10;99.90
5492;DHT22;2768;53.540;10.224;2023-05-06T16:05:15;11.10;99.90
5492;DHT22;2768;53.540;10.224;2023-05-06T16:11:09;11.10;99.90
5492;DHT22;2768;53.540;10.224;2023-05-06T16:17:03;11.10;99.90
5492;DHT22;2768;53.540;10.224;2023-05-06T16:22:56;11.20;99.90
5492;DHT22;2768;53.540;10.224;2023-05-06T16:28:49;11.20;99.90
5492;DHT22;2768;53.540;10.224;2023-05-06T16:34:46;11.20;99.90
5492;DHT22;2768;53.540;10.224;2023-05-06T16:40:39;11.20;99.90
5492;DHT22;2768;53.540;10.224;2023-05-06T16:46:33;11.20;99.90
5492;DHT22;2768;53.540;10.224;2023-05-06T16:52:28;11.20;99.90
5492;DHT22;2768;53.540;10.224;2023-05-06T16:58:21;11.10;99.90
5492;DHT22;2768;53.540;10.224;2023-05-06T17:04:15;11.10;99.90
5492;DHT22;2768;53.540;10.224;2023-05-06T17:10:10;11.10;99.90
5492;DHT22;2768;53.540;10.224;2023-05-06T17:16:04;11.10;99.90
5492;DHT22;2768;53.540;10.224;2023-05-06T17:21:57;11.00;99.90
5492;DHT22;2768;53.540;10.224;2023-05-06T17:27:51;11.00;99.90
5492;DHT22;2768;53.540;10.224;2023-05-06T17:33:45;10.90;99.90
5492;DHT22;2768;53.540;10.224;2023-05-06T17:39:38;10.90;99.90
5492;DHT22;2768;53.540;10.224;2023-05-06T17:45:32;10.90;99.90
5492;DHT22;2768;53.540;10.224;2023-05-06T17:51:26;10.80;99.90
5492;DHT22;2768;53.540;10.224;2023-05-06T17:57:19;10.80;99.90
5492;DHT22;2768;53.540;10.224;2023-05-06T18:03:14;10.90;99.90
5492;DHT22;2768;53.540;10.224;2023-05-06T18:09:07;10.80;99.90
5492;DHT22;2768;53.540;10.224;2023-05-06T18:15:01;10.80;99.90
5492;DHT22;2768;53.540;10.224;2023-05-06T18:20:55;10.80;99.90
5492;DHT22;2768;53.540;10.224;2023-05-06T18:26:48;10.60;99.90
5492;DHT22;2768;53.540;10.224;2023-05-06T18:32:42;10.60;99.90
5492;DHT22;2768;53.540;10.224;2023-05-06T18:38:37;10.70;99.90
5492;DHT22;2768;53.540;10.224;2023-05-06T18:44:30;10.70;99.90
5492;DHT22;2768;53.540;10.224;2023-05-06T18:50:23;10.70;99.90
5492;DHT22;2768;53.540;10.224;2023-05-06T18:56:18;10.80;99.90
5492;DHT22;2768;53.540;10.224;2023-05-06T19:02:12;10.80;99.90
5492;DHT22;2768;53.540;10.224;2023-05-06T19:08:05;10.80;99.90
5492;DHT22;2768;53.540;10.224;2023-05-06T19:14:01;10.70;99.90
5492;DHT22;2768;53.540;10.224;2023-05-06T19:19:54;10.70;99.90
5492;DHT22;2768;53.540;10.224;2023-05-06T19:25:48;10.70;99.90
5492;DHT22;2768;53.540;10.224;2023-05-06T19:31:42;10.60;99.90
5492;DHT22;2768;53.540;10.224;2023-05-06T19:37:36;10.60;99.90
5492;DHT22;2768;53.540;10.224;2023-05-06T19:43:29;10.50;99.90
5492;DHT22;2768;53.540;10.224;2023-05-06T19:49:23;10.50;99.90
5492;DHT22;2768;53.540;10.224;2023-05-06T19:55:17;10.50;99.90
5492;DHT22;2768;53.540;10.224;2023-05-06T20:01:11;10.60;99.90
5492;DHT22;2768;53.540;10.224;2023-05-06T20:07:05;10.60;99.90
5492;DHT22;2768;53.540;10.224;2023-05-06T20:12:59;10.60;99.90
5492;DHT22;2768;53.540;10.224;2023-05-06T20:18:53;10.50;99.90
5492;DHT22;2768;53.540;10.224;2023-05-06T20:24:49;10.60;99.90
5492;DHT22;2768;53.540;10.224;2023-05-06T20:30:43;10.50;99.90
5492;DHT22;2768;53.540;10.224;2023-05-06T20:36:37;10.60;99.90
5492;DHT22;2768;53.540;10.224;2023-05-06T20:42:32;10.50;99.90
5492;DHT22;2768;53.540;10.224;2023-05-06T20:48:25;10.60;99.90
5492;DHT22;2768;53.540;10.224;2023-05-06T20:54:18;10.50;99.90
5492;DHT22;2768;53.540;10.224;2023-05-06T21:00:13;10.60;99.90
5492;DHT22;2768;53.540;10.224;2023-05-06T21:06:07;10.50;99.90
5492;DHT22;2768;53.540;10.224;2023-05-06T21:12:00;10.50;99.90
5492;DHT22;2768;53.540;10.224;2023-05-06T21:17:55;10.50;99.90
5492;DHT22;2768;53.540;10.224;2023-05-06T21:23:48;10.50;99.90
5492;DHT22;2768;53.540;10.224;2023-05-06T21:29:42;10.50;99.90
5492;DHT22;2768;53.540;10.224;2023-05-06T21:35:37;10.50;99.90
5492;DHT22;2768;53.540;10.224;2023-05-06T21:41:30;10.50;99.90
5492;DHT22;2768;53.540;10.224;2023-05-06T21:47:26;10.50;99.90
5492;DHT22;2768;53.540;10.224;2023-05-06T21:53:20;10.40;99.90
5492;DHT22;2768;53.540;10.224;2023-05-06T21:59:14;10.40;99.90
5492;DHT22;2768;53.540;10.224;2023-05-06T22:05:07;10.40;99.90
5492;DHT22;2768;53.540;10.224;2023-05-06T22:11:02;10.30;99.90
5492;DHT22;2768;53.540;10.224;2023-05-06T22:16:55;10.30;99.90
5492;DHT22;2768;53.540;10.224;2023-05-06T22:22:49;10.20;99.90
5492;DHT22;2768;53.540;10.224;2023-05-06T22:28:44;10.20;99.90
5492;DHT22;2768;53.540;10.224;2023-05-06T22:34:37;10.20;99.90
5492;DHT22;2768;53.540;10.224;2023-05-06T22:40:33;10.20;99.90
5492;DHT22;2768;53.540;10.224;2023-05-06T22:46:27;10.20;99.90
5492;DHT22;2768;53.540;10.224;2023-05-06T22:52:21;10.20;99.90
5492;DHT22;2768;53.540;10.224;2023-05-06T22:58:16;10.10;99.90
5492;DHT22;2768;53.540;10.224;2023-05-06T23:04:10;10.10;99.90
5492;DHT22;2768;53.540;10.224;2023-05-06T23:10:04;10.00;99.90
5492;DHT22;2768;53.540;10.224;2023-05-06T23:15:57;10.10;99.90
5492;DHT22;2768;53.540;10.224;2023-05-06T23:21:52;10.10;99.90
5492;DHT22;2768;53.540;10.224;2023-05-06T23:27:45;10.10;99.90
5492;DHT22;2768;53.540;10.224;2023-05-06T23:33:38;9.90;99.90
5492;DHT22;2768;53.540;10.224;2023-05-06T23:39:33;9.90;99.90
5492;DHT22;2768;53.540;10.224;2023-05-06T23:45:26;9.90;99.90
5492;DHT22;2768;53.540;10.224;2023-05-06T23:51:19;9.90;99.90
5492;DHT22;2768;53.540;10.224;2023-05-06T23:57:14;9.90;99.90
